createdAt,value
2023-02-15T00:00:22.224Z,6.60
2023-02-15T00:02:49.504Z,6.60
2023-02-15T00:05:16.762Z,6.60
2023-02-15T00:07:44.004Z,6.60
2023-02-15T00:10:13.255Z,6.60
2023-02-15T00:12:40.369Z,6.60
2023-02-15T00:15:08.021Z,6.60
2023-02-15T00:17:35.126Z,6.60
2023-02-15T00:20:02.668Z,6.60
2023-02-15T00:22:29.823Z,6.60
2023-02-15T00:24:57.148Z,6.50
2023-02-15T00:27:24.576Z,6.50
2023-02-15T00:29:51.686Z,6.50
2023-02-15T00:32:18.780Z,6.50
2023-02-15T00:34:45.854Z,6.50
2023-02-15T00:37:13.050Z,6.50
2023-02-15T00:39:40.187Z,6.50
2023-02-15T00:42:07.317Z,6.50
2023-02-15T00:44:34.591Z,6.40
2023-02-15T00:47:01.695Z,6.40
2023-02-15T00:49:28.755Z,6.40
2023-02-15T00:51:55.845Z,6.40
2023-02-15T00:54:23.114Z,6.30
2023-02-15T00:56:50.348Z,6.30
2023-02-15T00:59:17.520Z,6.30
2023-02-15T01:01:44.580Z,6.20
2023-02-15T01:04:30.523Z,6.20
2023-02-15T01:06:57.729Z,6.10
2023-02-15T01:09:25.397Z,6.10
2023-02-15T01:11:52.509Z,6.10
2023-02-15T01:14:20.472Z,6.00
2023-02-15T01:16:47.703Z,6.00
2023-02-15T01:19:15.037Z,5.90
2023-02-15T01:21:42.385Z,5.90
2023-02-15T01:24:16.220Z,5.90
2023-02-15T01:26:43.443Z,5.80
2023-02-15T01:29:10.618Z,5.80
2023-02-15T01:31:40.143Z,5.80
2023-02-15T01:34:07.588Z,5.80
2023-02-15T01:36:36.422Z,5.70
2023-02-15T01:39:03.950Z,5.70
2023-02-15T01:41:32.021Z,5.70
2023-02-15T01:44:04.965Z,5.70
2023-02-15T01:46:42.517Z,5.70
2023-02-15T01:49:20.492Z,5.70
2023-02-15T01:51:50.381Z,5.70
2023-02-15T01:55:38.644Z,5.70
2023-02-15T01:58:07.036Z,5.70
2023-02-15T02:00:36.434Z,5.70
2023-02-15T02:03:04.846Z,5.70
2023-02-15T02:05:32.739Z,5.70
2023-02-15T02:08:37.340Z,5.70
2023-02-15T02:11:11.307Z,5.70
2023-02-15T02:13:39.611Z,5.70
2023-02-15T02:16:28.208Z,5.70
2023-02-15T02:19:33.077Z,5.70
2023-02-15T02:22:30.450Z,5.60
2023-02-15T02:25:44.853Z,5.70
2023-02-15T02:28:58.084Z,5.70
2023-02-15T02:32:15.173Z,5.60
2023-02-15T02:35:27.043Z,5.60
2023-02-15T02:38:42.243Z,5.60
2023-02-15T02:41:21.868Z,5.60
2023-02-15T02:44:23.183Z,5.60
2023-02-15T02:46:58.741Z,5.60
2023-02-15T02:49:46.845Z,5.50
2023-02-15T02:52:39.871Z,5.50
2023-02-15T02:55:40.135Z,5.50
2023-02-15T02:58:30.753Z,5.50
2023-02-15T03:01:07.320Z,5.50
2023-02-15T03:03:43.252Z,5.50
2023-02-15T03:06:50.061Z,5.40
2023-02-15T03:09:35.792Z,5.40
2023-02-15T03:12:06.944Z,5.40
2023-02-15T03:14:34.350Z,5.40
2023-02-15T03:17:03.841Z,5.40
2023-02-15T03:19:36.523Z,5.40
2023-02-15T03:22:20.471Z,5.30
2023-02-15T03:25:08.938Z,5.30
2023-02-15T03:27:50.349Z,5.30
2023-02-15T03:30:21.633Z,5.30
2023-02-15T03:32:52.090Z,5.30
2023-02-15T03:35:26.013Z,5.20
2023-02-15T03:38:00.462Z,5.20
2023-02-15T03:41:01.764Z,5.20
2023-02-15T03:44:07.538Z,5.20
2023-02-15T03:46:53.762Z,5.10
2023-02-15T03:49:56.789Z,5.10
2023-02-15T03:52:27.674Z,5.10
2023-02-15T03:54:55.918Z,5.00
2023-02-15T03:57:47.403Z,5.00
2023-02-15T04:00:37.885Z,4.90
2023-02-15T04:03:17.074Z,5.00
2023-02-15T04:05:45.868Z,4.90
2023-02-15T04:08:14.191Z,4.90
2023-02-15T04:10:53.549Z,4.90
2023-02-15T04:13:23.198Z,4.90
2023-02-15T04:16:07.259Z,4.90
2023-02-15T04:18:56.385Z,4.90
2023-02-15T04:21:44.996Z,4.80
2023-02-15T04:24:31.259Z,4.80
2023-02-15T04:27:00.134Z,4.80
2023-02-15T04:29:29.229Z,4.80
2023-02-15T04:31:59.828Z,4.70
2023-02-15T04:34:27.677Z,4.70
2023-02-15T04:36:54.935Z,4.70
2023-02-15T04:39:22.099Z,4.60
2023-02-15T04:42:28.711Z,4.60
2023-02-15T04:44:56.081Z,4.60
2023-02-15T04:47:42.505Z,4.60
2023-02-15T04:50:10.269Z,4.50
2023-02-15T04:52:37.375Z,4.60
2023-02-15T04:55:04.791Z,4.50
2023-02-15T04:57:52.873Z,4.50
2023-02-15T05:00:20.489Z,4.50
2023-02-15T05:02:47.641Z,4.50
2023-02-15T05:05:16.236Z,4.50
2023-02-15T05:07:43.393Z,4.40
2023-02-15T05:10:10.936Z,4.40
2023-02-15T05:12:38.230Z,4.40
2023-02-15T05:15:05.661Z,4.40
2023-02-15T05:17:32.836Z,4.30
2023-02-15T05:20:00.037Z,4.30
2023-02-15T05:22:27.295Z,4.30
2023-02-15T05:25:13.083Z,4.30
2023-02-15T05:27:58.733Z,4.30
2023-02-15T05:30:26.207Z,4.30
2023-02-15T05:32:53.493Z,4.30
2023-02-15T05:35:21.137Z,4.30
2023-02-15T05:37:48.173Z,4.20
2023-02-15T05:40:15.474Z,4.20
2023-02-15T05:42:42.668Z,4.20
2023-02-15T05:45:10.507Z,4.10
2023-02-15T05:47:37.640Z,4.10
2023-02-15T05:50:05.490Z,4.20
2023-02-15T05:52:32.675Z,4.10
2023-02-15T05:55:01.270Z,4.10
2023-02-15T05:57:28.603Z,4.10
2023-02-15T05:59:55.710Z,4.10
2023-02-15T06:02:22.900Z,4.10
2023-02-15T06:04:50.004Z,4.00
2023-02-15T06:07:17.192Z,4.10
2023-02-15T06:09:44.424Z,4.00
2023-02-15T06:12:13.639Z,4.00
2023-02-15T06:14:40.700Z,4.00
2023-02-15T06:17:07.809Z,4.00
2023-02-15T06:19:34.897Z,4.00
2023-02-15T06:22:02.113Z,4.00
2023-02-15T06:24:29.375Z,4.00
2023-02-15T06:31:25.844Z,4.00
2023-02-15T06:42:12.930Z,3.90
2023-02-15T06:48:50.678Z,3.90
2023-02-15T06:51:17.906Z,3.80
2023-02-15T06:53:45.431Z,3.80
2023-02-15T06:56:13.235Z,3.80
2023-02-15T07:02:59.409Z,3.90
2023-02-15T07:05:32.352Z,3.90
2023-02-15T07:08:01.531Z,3.80
2023-02-15T07:10:29.841Z,3.80
2023-02-15T07:17:38.222Z,3.90
2023-02-15T07:24:15.845Z,3.90
2023-02-15T07:30:53.616Z,4.00
2023-02-15T07:33:28.321Z,4.00
2023-02-15T07:40:06.791Z,4.00
2023-02-15T07:42:33.994Z,4.10
2023-02-15T08:01:40.937Z,4.30
2023-02-15T08:04:10.486Z,4.40
2023-02-15T08:06:38.864Z,4.40
2023-02-15T08:09:09.399Z,4.40
2023-02-15T08:11:42.115Z,4.50
2023-02-15T08:14:16.763Z,4.50
2023-02-15T08:16:48.014Z,4.60
2023-02-15T08:19:26.341Z,4.60
2023-02-15T08:25:53.452Z,4.80
2023-02-15T08:28:20.679Z,4.80
2023-02-15T08:30:47.877Z,4.90
2023-02-15T08:33:15.028Z,4.90
2023-02-15T08:35:42.235Z,5.00
2023-02-15T08:38:09.575Z,5.00
2023-02-15T08:40:39.223Z,5.10
2023-02-15T08:43:08.195Z,5.10
2023-02-15T08:45:37.677Z,5.20
2023-02-15T08:48:05.026Z,5.30
2023-02-15T08:50:32.296Z,5.30
2023-02-15T08:52:59.384Z,5.40
2023-02-15T08:55:26.492Z,5.50
2023-02-15T08:57:56.884Z,5.60
2023-02-15T09:00:24.284Z,5.70
2023-02-15T09:02:51.498Z,5.70
2023-02-15T09:05:18.738Z,5.80
2023-02-15T09:07:46.049Z,5.90
2023-02-15T09:10:13.317Z,6.00
2023-02-15T09:12:40.596Z,6.00
2023-02-15T09:15:08.525Z,6.10
2023-02-15T09:17:35.737Z,6.20
2023-02-15T09:20:03.175Z,6.30
2023-02-15T09:22:32.476Z,6.40
2023-02-15T09:24:59.873Z,6.50
2023-02-15T09:27:45.888Z,6.50
2023-02-15T09:30:50.416Z,6.70
2023-02-15T09:33:17.662Z,6.80
2023-02-15T09:35:44.811Z,7.00
2023-02-15T09:38:13.235Z,7.10
2023-02-15T09:45:23.911Z,7.40
2023-02-15T09:48:37.503Z,7.60
2023-02-15T09:51:25.027Z,7.70
2023-02-15T09:54:56.868Z,7.90
2023-02-15T09:58:18.928Z,8.10
2023-02-15T10:01:01.445Z,8.30
2023-02-15T10:03:40.530Z,8.40
2023-02-15T10:06:30.273Z,8.50
2023-02-15T10:09:35.707Z,8.60
2023-02-15T10:12:43.917Z,8.70
2023-02-15T10:15:22.726Z,8.90
2023-02-15T10:18:20.832Z,9.00
2023-02-15T10:21:03.839Z,9.10
2023-02-15T10:24:19.988Z,9.30
2023-02-15T10:26:49.724Z,9.30
2023-02-15T10:29:29.028Z,9.50
2023-02-15T10:32:05.995Z,9.60
2023-02-15T10:34:49.278Z,9.80
2023-02-15T10:37:42.106Z,10.10
2023-02-15T10:40:34.122Z,10.40
2023-02-15T10:43:25.327Z,10.80
2023-02-15T10:46:24.121Z,11.30
2023-02-15T10:49:50.834Z,11.70
2023-02-15T10:53:11.382Z,12.10
2023-02-15T10:56:05.764Z,12.70
2023-02-15T10:59:31.855Z,13.10
2023-02-15T11:02:13.753Z,13.50
2023-02-15T11:05:40.892Z,13.90
2023-02-15T11:08:12.846Z,14.30
2023-02-15T11:11:06.563Z,14.60
2023-02-15T11:13:47.550Z,14.90
2023-02-15T11:16:25.638Z,15.10
2023-02-15T11:19:05.019Z,15.30
2023-02-15T11:21:45.559Z,15.50
2023-02-15T11:24:21.149Z,15.70
2023-02-15T11:27:11.020Z,15.90
2023-02-15T11:30:04.844Z,16.00
2023-02-15T11:32:40.810Z,16.30
2023-02-15T11:35:13.988Z,16.50
2023-02-15T11:37:55.923Z,16.80
2023-02-15T11:40:33.671Z,17.00
2023-02-15T11:43:11.367Z,17.30
2023-02-15T11:45:41.775Z,17.50
2023-02-15T11:48:15.453Z,17.60
2023-02-15T11:50:45.409Z,17.80
2023-02-15T11:53:22.286Z,18.00
2023-02-15T11:55:52.134Z,18.20
2023-02-15T11:58:41.680Z,18.30
2023-02-15T12:01:29.899Z,18.50
2023-02-15T12:04:20.862Z,18.70
2023-02-15T12:07:27.038Z,18.90
2023-02-15T12:10:25.954Z,19.10
2023-02-15T12:13:14.123Z,19.50
2023-02-15T12:15:53.439Z,19.70
2023-02-15T12:18:42.099Z,20.00
2023-02-15T12:21:27.742Z,20.10
2023-02-15T12:32:37.139Z,20.50
2023-02-15T12:35:31.013Z,20.70
2023-02-15T12:38:27.089Z,20.80
2023-02-15T12:41:50.831Z,20.80
2023-02-15T12:44:31.475Z,20.90
2023-02-15T12:51:11.092Z,21.00
2023-02-15T12:53:40.338Z,21.10
2023-02-15T12:56:11.889Z,21.20
2023-02-15T12:59:15.998Z,21.20
2023-02-15T13:01:44.303Z,21.30
2023-02-15T13:04:32.365Z,21.40
2023-02-15T13:07:03.824Z,21.40
2023-02-15T13:09:38.246Z,21.60
2023-02-15T13:12:27.927Z,21.70
2023-02-15T13:14:57.480Z,21.80
2023-02-15T13:17:35.589Z,21.80
2023-02-15T13:20:11.164Z,21.90
2023-02-15T13:23:36.445Z,22.10
2023-02-15T13:26:30.776Z,22.20
2023-02-15T13:29:09.773Z,22.30
2023-02-15T13:31:37.454Z,22.50
2023-02-15T13:34:23.625Z,22.60
2023-02-15T13:37:46.790Z,22.80
2023-02-15T13:40:36.825Z,22.90
2023-02-15T13:43:29.907Z,23.10
2023-02-15T13:46:36.286Z,23.10
2023-02-15T13:49:31.187Z,23.10
2023-02-15T13:53:15.664Z,23.00
2023-02-15T13:56:20.485Z,22.90
2023-02-15T13:59:12.199Z,22.80
2023-02-15T14:01:57.210Z,22.60
2023-02-15T14:05:03.045Z,22.50
2023-02-15T14:08:13.673Z,22.30
2023-02-15T14:11:16.684Z,22.00
2023-02-15T14:14:11.543Z,21.80
2023-02-15T14:17:06.612Z,21.70
2023-02-15T14:20:05.094Z,21.70
2023-02-15T14:22:38.109Z,21.70
2023-02-15T14:25:27.306Z,21.70
2023-02-15T14:28:16.303Z,21.60
2023-02-15T14:30:51.058Z,21.60
2023-02-15T14:33:47.303Z,21.50
2023-02-15T14:36:20.692Z,21.40
2023-02-15T14:40:19.353Z,21.30
2023-02-15T14:43:31.101Z,21.30
2023-02-15T14:46:16.195Z,21.20
2023-02-15T14:48:52.174Z,21.20
2023-02-15T14:51:41.234Z,21.10
2023-02-15T14:54:10.461Z,21.10
2023-02-15T14:56:39.949Z,21.00
2023-02-15T14:59:25.553Z,21.00
2023-02-15T15:02:04.901Z,20.90
2023-02-15T15:04:41.443Z,20.90
2023-02-15T15:07:24.003Z,20.80
2023-02-15T15:10:18.299Z,20.80
2023-02-15T15:12:48.636Z,20.70
2023-02-15T15:15:46.136Z,20.60
2023-02-15T15:18:48.278Z,20.50
2023-02-15T15:21:53.735Z,20.30
2023-02-15T15:24:39.373Z,20.10
2023-02-15T15:27:37.760Z,19.90
2023-02-15T15:30:34.263Z,19.70
2023-02-15T15:33:48.162Z,19.50
2023-02-15T15:36:37.935Z,19.30
2023-02-15T15:39:47.884Z,19.10
2023-02-15T15:42:55.592Z,18.90
2023-02-15T15:46:14.826Z,18.70
2023-02-15T15:48:43.241Z,18.50
2023-02-15T15:59:35.720Z,17.90
2023-02-15T16:02:18.371Z,17.70
2023-02-15T16:04:50.709Z,17.60
2023-02-15T16:07:17.911Z,17.40
2023-02-15T16:10:07.924Z,17.30
2023-02-15T16:12:39.634Z,17.20
2023-02-15T16:15:25.537Z,17.00
2023-02-15T16:17:58.831Z,16.90
2023-02-15T16:20:28.196Z,16.80
2023-02-15T16:23:51.650Z,16.60
2023-02-15T16:27:00.131Z,16.50
2023-02-15T16:29:31.997Z,16.40
2023-02-15T16:32:07.852Z,16.30
2023-02-15T16:34:35.254Z,16.10
2023-02-15T16:37:28.725Z,16.00
2023-02-15T16:39:57.469Z,15.90
2023-02-15T16:42:25.936Z,15.80
2023-02-15T16:45:06.463Z,15.70
2023-02-15T16:47:42.121Z,15.60
2023-02-15T16:50:38.995Z,15.50
2023-02-15T16:53:30.813Z,15.40
2023-02-15T16:56:05.786Z,15.30
2023-02-15T17:03:06.438Z,15.10
2023-02-15T17:05:57.416Z,15.00
2023-02-15T17:08:31.398Z,14.90
2023-02-15T17:11:10.000Z,14.80
2023-02-15T17:14:38.888Z,14.70
2023-02-15T17:25:41.116Z,14.40
2023-02-15T17:28:21.375Z,14.20
2023-02-15T17:30:51.931Z,14.10
2023-02-15T17:41:38.927Z,13.80
2023-02-15T17:44:08.578Z,13.70
2023-02-15T17:46:38.322Z,13.60
2023-02-15T17:49:06.521Z,13.60
2023-02-15T17:55:43.715Z,13.40
2023-02-15T17:58:22.674Z,13.30
2023-02-15T18:05:08.378Z,13.10
2023-02-15T18:07:54.113Z,13.10
2023-02-15T18:10:39.815Z,13.00
2023-02-15T18:13:07.090Z,12.90
2023-02-15T18:15:35.239Z,12.80
2023-02-15T18:18:03.084Z,12.70
2023-02-15T18:20:37.343Z,12.70
2023-02-15T18:23:04.566Z,12.60
2023-02-15T18:25:31.840Z,12.50
2023-02-15T18:28:00.539Z,12.50
2023-02-15T18:31:07.408Z,12.50
2023-02-15T18:34:57.791Z,12.40
2023-02-15T18:37:30.955Z,12.30
2023-02-15T18:39:58.153Z,12.20
2023-02-15T18:42:36.225Z,12.20
2023-02-15T18:45:16.526Z,12.10
2023-02-15T18:48:22.437Z,12.00
2023-02-15T18:50:53.640Z,12.00
2023-02-15T18:53:22.404Z,11.90
2023-02-15T18:57:04.912Z,11.80
2023-02-15T18:59:32.798Z,11.70
2023-02-15T19:02:01.392Z,11.60
2023-02-15T19:04:28.645Z,11.50
2023-02-15T19:06:56.264Z,11.40
2023-02-15T19:09:48.606Z,11.40
2023-02-15T19:12:15.943Z,11.30
2023-02-15T19:14:43.087Z,11.20
2023-02-15T19:17:20.318Z,11.20
2023-02-15T19:19:48.686Z,11.10
2023-02-15T19:22:29.257Z,11.10
2023-02-15T19:25:03.035Z,11.00
2023-02-15T19:27:35.105Z,10.90
2023-02-15T19:30:13.673Z,10.90
2023-02-15T19:32:40.872Z,10.90
2023-02-15T19:35:15.566Z,10.80
2023-02-15T19:37:51.316Z,10.80
2023-02-15T19:40:26.966Z,10.70
2023-02-15T19:42:55.121Z,10.70
2023-02-15T19:45:30.821Z,10.70
2023-02-15T19:47:58.071Z,10.60
2023-02-15T19:50:30.044Z,10.50
2023-02-15T19:52:57.999Z,10.50
2023-02-15T19:55:26.419Z,10.50
2023-02-15T19:57:56.533Z,10.50
2023-02-15T20:00:28.235Z,10.40
2023-02-15T20:09:20.224Z,10.40
2023-02-15T20:11:49.736Z,10.40
2023-02-15T20:14:17.885Z,10.30
2023-02-15T20:16:45.272Z,10.30
2023-02-15T20:19:13.422Z,10.30
2023-02-15T20:21:43.882Z,10.20
2023-02-15T20:24:28.185Z,10.20
2023-02-15T20:26:55.698Z,10.20
2023-02-15T20:29:24.572Z,10.20
2023-02-15T20:31:54.893Z,10.20
2023-02-15T20:34:22.725Z,10.20
2023-02-15T20:36:50.576Z,10.20
2023-02-15T20:39:20.631Z,10.10
2023-02-15T20:41:48.434Z,10.20
2023-02-15T20:44:31.468Z,10.20
2023-02-15T20:47:00.583Z,10.20
2023-02-15T20:49:28.879Z,10.20
2023-02-15T20:51:57.710Z,10.20
2023-02-15T20:54:30.181Z,10.20
2023-02-15T20:56:57.686Z,10.20
2023-02-15T20:59:32.659Z,10.20
2023-02-15T21:02:24.199Z,10.20
2023-02-15T21:04:51.552Z,10.20
2023-02-15T21:07:24.230Z,10.10
2023-02-15T21:09:52.689Z,10.10
2023-02-15T21:12:22.332Z,10.10
2023-02-15T21:23:49.162Z,10.00
2023-02-15T21:26:22.590Z,9.90
2023-02-15T21:28:50.774Z,9.80
2023-02-15T21:31:28.832Z,9.80
2023-02-15T21:33:56.149Z,9.70
2023-02-15T21:36:25.585Z,9.70
2023-02-15T21:44:07.992Z,9.60
2023-02-15T21:46:56.790Z,9.60
2023-02-15T21:49:23.936Z,9.60
2023-02-15T21:56:05.248Z,9.50
2023-02-15T21:58:37.047Z,9.50
2023-02-15T22:01:06.745Z,9.40
2023-02-15T22:03:38.142Z,9.40
2023-02-15T22:06:06.360Z,9.40
2023-02-15T22:08:34.614Z,9.40
2023-02-15T22:11:02.154Z,9.40
2023-02-15T22:13:34.289Z,9.40
2023-02-15T22:16:05.755Z,9.40
2023-02-15T22:18:35.152Z,9.40
2023-02-15T22:21:04.571Z,9.40
2023-02-15T22:23:32.013Z,9.40
2023-02-15T22:26:24.200Z,9.40
2023-02-15T22:28:52.118Z,9.40
2023-02-15T22:31:23.971Z,9.40
2023-02-15T22:33:51.636Z,9.40
2023-02-15T22:36:31.046Z,9.30
2023-02-15T22:52:47.461Z,9.10
2023-02-15T22:55:21.763Z,9.00
2023-02-15T22:57:54.761Z,9.00
2023-02-15T23:00:31.485Z,8.90
2023-02-15T23:02:58.835Z,8.90
2023-02-15T23:05:30.384Z,8.80
2023-02-15T23:07:58.174Z,8.70
2023-02-15T23:10:26.998Z,8.70
2023-02-15T23:13:18.506Z,8.70
2023-02-15T23:15:51.752Z,8.60
2023-02-15T23:18:40.794Z,8.50
2023-02-15T23:21:31.868Z,8.50
2023-02-15T23:24:19.316Z,8.40
2023-02-15T23:26:47.708Z,8.40
2023-02-15T23:29:23.858Z,8.30
2023-02-15T23:31:53.825Z,8.30
2023-02-15T23:34:30.689Z,8.20
2023-02-15T23:36:58.179Z,8.20
2023-02-15T23:39:46.954Z,8.20
2023-02-15T23:42:27.996Z,8.10
2023-02-15T23:44:55.551Z,8.10
2023-02-15T23:47:54.830Z,8.10
2023-02-15T23:50:30.564Z,8.10
2023-02-15T23:52:58.580Z,8.00
2023-02-15T23:55:38.905Z,8.10
2023-02-15T23:58:11.853Z,8.00
